createdAt,value
2018-03-15T00:01:46.803Z,7.14
2018-03-15T00:07:37.458Z,5.92
2018-03-15T00:13:28.074Z,7.5
2018-03-15T00:19:18.704Z,8.05
2018-03-15T00:25:09.217Z,6.18
2018-03-15T00:30:59.846Z,7.77
2018-03-15T00:36:50.449Z,8.5
2018-03-15T00:42:41.138Z,7.04
2018-03-15T00:48:31.750Z,6.19
2018-03-15T00:54:22.310Z,6.15
2018-03-15T01:00:13.030Z,6.1
2018-03-15T01:06:03.544Z,6.05
2018-03-15T01:11:54.188Z,6.93
2018-03-15T01:17:44.846Z,5.99
2018-03-15T01:23:35.417Z,5.44
2018-03-15T01:29:26.024Z,5.94
2018-03-15T01:35:16.701Z,6.24
2018-03-15T01:41:07.283Z,6.2
2018-03-15T01:46:57.884Z,5.78
2018-03-15T01:52:48.489Z,5.75
2018-03-15T01:58:39.097Z,4.98
2018-03-15T02:04:29.730Z,5.97
2018-03-15T02:10:20.363Z,6.03
2018-03-15T02:16:10.982Z,6.64
2018-03-15T02:22:01.506Z,6.35
2018-03-15T02:27:52.082Z,6.46
2018-03-15T02:33:42.740Z,7.45
2018-03-15T02:39:33.389Z,7.56
2018-03-15T02:45:23.936Z,7.73
2018-03-15T02:51:14.593Z,8.69
2018-03-15T02:57:05.236Z,7.9
2018-03-15T03:02:56.041Z,7.76
2018-03-15T03:08:46.432Z,6.03
2018-03-15T03:14:36.991Z,5.63
2018-03-15T03:20:27.607Z,6.74
2018-03-15T03:26:18.237Z,5.09
2018-03-15T03:32:08.831Z,5.81
2018-03-15T03:37:59.466Z,6.36
2018-03-15T03:43:50.048Z,6.35
2018-03-15T03:49:40.671Z,6.31
2018-03-15T03:55:31.235Z,6.22
2018-03-15T04:01:21.835Z,7.37
2018-03-15T04:07:12.511Z,7.48
2018-03-15T04:13:03.061Z,7.54
2018-03-15T04:18:53.686Z,7.65
2018-03-15T04:24:44.365Z,7.59
2018-03-15T04:30:34.917Z,7.01
2018-03-15T04:36:25.508Z,7.47
2018-03-15T04:42:16.068Z,8.29
2018-03-15T04:48:06.707Z,7.85
2018-03-15T04:53:57.298Z,9.01
2018-03-15T04:59:47.927Z,8.94
2018-03-15T05:05:38.518Z,7.19
2018-03-15T05:11:29.125Z,6.71
2018-03-15T05:17:19.729Z,5.8
2018-03-15T05:23:10.373Z,5.16
2018-03-15T05:29:01.036Z,4.62
2018-03-15T05:34:51.537Z,5.07
2018-03-15T05:40:42.178Z,4.99
2018-03-15T05:46:32.749Z,5.76
2018-03-15T05:52:23.396Z,5.01
2018-03-15T05:58:13.987Z,6.08
2018-03-15T06:04:04.594Z,5.75
2018-03-15T06:09:55.171Z,5.74
2018-03-15T06:15:45.790Z,5.05
2018-03-15T06:21:36.495Z,5.84
2018-03-15T06:27:27.062Z,6.39
2018-03-15T06:33:17.633Z,4.4
2018-03-15T06:39:08.294Z,5.51
2018-03-15T06:44:58.859Z,5.62
2018-03-15T06:50:49.537Z,7.25
2018-03-15T06:56:40.116Z,7.73
2018-03-15T07:02:30.786Z,7.41
2018-03-15T07:08:21.385Z,6.4
2018-03-15T07:14:11.985Z,7.32
2018-03-15T07:20:02.667Z,11.5
2018-03-15T07:25:53.217Z,18.98
2018-03-15T07:31:43.903Z,20.69
2018-03-15T07:37:34.515Z,24.87
2018-03-15T07:43:25.186Z,19.42
2018-03-15T07:49:15.769Z,16.77
2018-03-15T07:55:06.354Z,13.23
2018-03-15T08:00:57.001Z,8.28
2018-03-15T08:06:47.682Z,5.71
2018-03-15T08:12:38.281Z,5.31
2018-03-15T08:18:28.950Z,4.46
2018-03-15T08:24:19.632Z,5.1
2018-03-15T08:30:10.228Z,5.87
2018-03-15T08:36:00.791Z,4.05
2018-03-15T08:41:51.488Z,4.79
2018-03-15T08:47:42.069Z,6.96
2018-03-15T08:53:32.691Z,6.28
2018-03-15T08:59:23.359Z,3.43
2018-03-15T09:05:14.000Z,2.99
2018-03-15T09:11:04.628Z,3.26
2018-03-15T09:16:55.256Z,2.81
2018-03-15T09:22:45.965Z,2.46
2018-03-15T09:28:36.547Z,2.56
2018-03-15T09:34:27.309Z,2.55
2018-03-15T09:40:17.980Z,2.95
2018-03-15T09:46:08.634Z,3.3
2018-03-15T09:51:59.189Z,3.29
2018-03-15T09:57:49.870Z,3.51
2018-03-15T10:03:40.486Z,3.22
2018-03-15T10:09:31.136Z,2.97
2018-03-15T10:15:21.781Z,3.29
2018-03-15T10:21:12.459Z,2.85
2018-03-15T10:27:03.106Z,3.19
2018-03-15T10:32:53.758Z,1.71
2018-03-15T10:38:44.466Z,2.19
2018-03-15T10:44:35.147Z,3.02
2018-03-15T10:50:25.801Z,2.56
2018-03-15T10:56:16.479Z,2.11
2018-03-15T11:02:07.177Z,2.28
2018-03-15T11:07:57.743Z,12.37
2018-03-15T11:13:48.350Z,9.63
2018-03-15T11:19:38.996Z,5.29
2018-03-15T11:25:29.707Z,13.72
2018-03-15T11:31:20.353Z,8.95
2018-03-15T11:37:11.006Z,9.29
2018-03-15T11:43:01.669Z,5.73
2018-03-15T11:48:52.326Z,2.84
2018-03-15T11:54:42.955Z,4.85
2018-03-15T12:00:33.660Z,3.85
2018-03-15T12:06:24.216Z,3.18
2018-03-15T12:12:14.884Z,2.67
2018-03-15T12:18:05.516Z,2.37
2018-03-15T12:23:56.185Z,2.64
2018-03-15T12:29:46.873Z,2.69
2018-03-15T12:35:37.475Z,4.05
2018-03-15T12:41:28.143Z,8.66
2018-03-15T12:47:18.850Z,1.84
2018-03-15T12:53:09.498Z,3.34
2018-03-15T12:59:00.125Z,2.82
2018-03-15T13:04:50.762Z,3.01
2018-03-15T13:10:41.413Z,11.33
2018-03-15T13:16:32.082Z,4.53
2018-03-15T13:22:22.767Z,3.52
2018-03-15T13:28:13.402Z,2.45
2018-03-15T13:34:04.027Z,2.55
2018-03-15T13:39:54.666Z,3.13
2018-03-15T13:45:45.346Z,3.07
2018-03-15T13:51:35.967Z,4.12
2018-03-15T13:57:26.584Z,3.12
2018-03-15T14:03:17.255Z,3.46
2018-03-15T14:09:07.898Z,3.56
2018-03-15T14:14:58.536Z,2.7
2018-03-15T14:20:49.155Z,3.72
2018-03-15T14:26:39.823Z,3.87
2018-03-15T14:32:30.478Z,4.21
2018-03-15T14:38:21.102Z,4.68
2018-03-15T14:44:11.746Z,5.15
2018-03-15T14:50:02.481Z,2.59
2018-03-15T14:55:53.071Z,2.36
2018-03-15T15:01:43.685Z,2.56
2018-03-15T15:07:34.376Z,3.66
2018-03-15T15:13:25.018Z,4.04
2018-03-15T15:19:15.641Z,2.44
2018-03-15T15:25:06.365Z,2.53
2018-03-15T15:30:56.993Z,3.4
2018-03-15T15:36:47.629Z,2.74
2018-03-15T15:42:38.252Z,5.47
2018-03-15T15:48:28.905Z,3.73
2018-03-15T15:54:19.529Z,5.88
2018-03-15T16:00:10.196Z,10.41
2018-03-15T16:06:00.829Z,4.21
2018-03-15T16:11:51.483Z,5.93
2018-03-15T16:17:42.115Z,3.62
2018-03-15T16:23:32.766Z,4.45
2018-03-15T16:29:23.396Z,4.05
2018-03-15T16:35:14.028Z,9.88
2018-03-15T16:41:04.717Z,5.74
2018-03-15T16:46:55.379Z,4.61
2018-03-15T16:52:46.024Z,4.75
2018-03-15T16:58:36.606Z,4.27
2018-03-15T17:04:27.254Z,2.76
2018-03-15T17:10:17.979Z,3.52
2018-03-15T17:16:08.613Z,3.33
2018-03-15T17:21:59.254Z,3.21
2018-03-15T17:27:49.872Z,8.54
2018-03-15T17:33:40.535Z,7.34
2018-03-15T17:39:31.164Z,5.19
2018-03-15T17:45:21.850Z,4.29
2018-03-15T17:51:12.504Z,4.01
2018-03-15T17:57:03.107Z,6.41
2018-03-15T18:02:53.732Z,5.09
2018-03-15T18:08:44.422Z,6.05
2018-03-15T18:14:35.072Z,10.15
2018-03-15T18:20:25.671Z,7.29
2018-03-15T18:26:16.359Z,5.83
2018-03-15T18:32:06.981Z,7.58
2018-03-15T18:37:57.646Z,8.6
2018-03-15T18:43:48.287Z,5.01
2018-03-15T18:49:38.902Z,5.87
2018-03-15T18:55:29.581Z,5.21
2018-03-15T19:01:20.284Z,4.86
2018-03-15T19:07:10.856Z,3.61
2018-03-15T19:13:01.514Z,3.6
2018-03-15T19:18:52.140Z,5.16
2018-03-15T19:24:42.773Z,4.46
2018-03-15T19:30:33.452Z,5.09
2018-03-15T19:36:24.082Z,4.03
2018-03-15T19:42:14.752Z,3.98
2018-03-15T19:48:05.351Z,4
2018-03-15T19:53:56.036Z,4.28
2018-03-15T19:59:46.689Z,4.31
2018-03-15T20:05:37.306Z,4.31
2018-03-15T20:11:28.020Z,5.15
2018-03-15T20:17:18.627Z,5.15
2018-03-15T20:23:09.286Z,5.1
2018-03-15T20:28:59.954Z,4.67
2018-03-15T20:34:50.560Z,5.29
2018-03-15T20:40:41.211Z,4.58
2018-03-15T20:46:31.875Z,5.96
2018-03-15T20:52:22.534Z,4.66
2018-03-15T20:58:13.170Z,5.56
2018-03-15T21:04:03.819Z,6.15
2018-03-15T21:09:54.475Z,6.61
2018-03-15T21:15:45.180Z,7.54
2018-03-15T21:21:35.733Z,4.59
2018-03-15T21:27:26.434Z,3
2018-03-15T21:33:17.047Z,3.91
2018-03-15T21:39:07.735Z,5.66
2018-03-15T21:44:58.346Z,5.9
2018-03-15T21:50:49.010Z,4.55
2018-03-15T21:56:39.707Z,4
2018-03-15T22:02:30.316Z,3.69
2018-03-15T22:08:20.997Z,4.51
2018-03-15T22:14:11.626Z,3.29
2018-03-15T22:20:02.268Z,2.41
2018-03-15T22:25:52.931Z,4
2018-03-15T22:31:43.566Z,4.3
2018-03-15T22:37:34.175Z,3.65
2018-03-15T22:43:24.896Z,3.78
2018-03-15T22:49:15.521Z,4.6
2018-03-15T22:55:06.225Z,5.28
2018-03-15T23:00:56.761Z,5.36
2018-03-15T23:06:47.414Z,4.36
2018-03-15T23:12:38.085Z,3.79
2018-03-15T23:18:28.705Z,4.25
2018-03-15T23:24:19.333Z,5.76
2018-03-15T23:30:10.009Z,5.99
2018-03-15T23:36:00.624Z,4.96
2018-03-15T23:41:51.285Z,4.42
2018-03-15T23:47:41.941Z,4.29
2018-03-15T23:53:32.605Z,4.4
2018-03-15T23:59:23.232Z,4.24
